Hosho Maru — JK4910 — position and weather

sailwx.info

Track history (hours):
 
Tides and Currents Weather Stations Pressure Air Temp Water Temp Dewpoint Dewpoint Depression Visibility Wind Speed Wind Dir Waves Ship Positions

Hosho Maru

Last reported at 2018-Jan-20 00:58 UTC. Time now 2018-Jan-20 01:13 UTC.
Position N 34°41' E 134°41'.

Length 41 m; draft 4 m.

Type: Tug. MMSI: 431400947.

Date/timePositionNaut miles runAvg speedWind from/ knotsBaromVisibWave heightAir tempDewpointWater temp
2018-Jan-20 00:58N 34°41' E 134°41'613.5
2018-Jan-20 00:30N 34°39' E 134°48'714.7
2018-Jan-20 00:00N 34°38' E 134°57'714.9
2018-Jan-19 23:30N 34°36' E 135°06'510.9
2018-Jan-19 23:00N 34°40' E 135°11'  
2018-Jan-10 10:21N 34°40' E 135°11'2 6.6
2018-Jan-10 10:00N 34°41' E 135°14'612.0
2018-Jan-10 09:30N 34°36' E 135°18'612.4
2018-Jan-10 09:00N 34°32' E 135°24'1 1.3
2018-Jan-10 08:30N 34°32' E 135°24'4 8.7
2018-Jan-10 08:00N 34°33' E 135°19'5 9.3
2018-Jan-10 07:30N 34°34' E 135°14'5 9.8
2018-Jan-10 07:01N 34°34' E 135°08'5 9.3
2018-Jan-10 06:30N 34°36' E 135°03'4 7.4
2018-Jan-10 06:00N 34°37' E 134°58'4 7.9
2018-Jan-10 05:30N 34°38' E 134°53'4 8.3
2018-Jan-10 05:00N 34°41' E 134°50'1 2.8
2018-Jan-10 04:30N 34°42' E 134°50'0 0.1
2018-Jan-10 04:01N 34°42' E 134°50'0 0.1
2018-Jan-10 03:30N 34°42' E 134°50'0 0.0
2018-Jan-10 03:00N 34°42' E 134°50'0 0.0
2018-Jan-10 02:30N 34°42' E 134°50'1 1.4
2018-Jan-10 02:00N 34°41' E 134°50'4 8.0
2018-Jan-10 01:30N 34°38' E 134°53'4 8.3
2018-Jan-10 01:00N 34°37' E 134°58'  
Track history (hours):
 
Tides and Currents Weather Stations Pressure Air Temp Water Temp Dewpoint Dewpoint Depression Visibility Wind Speed Wind Dir Waves Ship Positions

Hosho Maru

Last reported at 2018-Jan-20 00:58 UTC. Time now 2018-Jan-20 01:13 UTC.
Position N 34°41' E 134°41'.

Length 41 m; draft 4 m.

Type: Tug. MMSI: 431400947.

Date/timePositionNaut miles runAvg speedWind from/ knotsBaromVisibWave heightAir tempDewpointWater temp
2018-Jan-20 00:58N 34°41' E 134°41'613.5
2018-Jan-20 00:30N 34°39' E 134°48'714.7
2018-Jan-20 00:00N 34°38' E 134°57'714.9
2018-Jan-19 23:30N 34°36' E 135°06'510.9
2018-Jan-19 23:00N 34°40' E 135°11'  
2018-Jan-10 10:21N 34°40' E 135°11'2 6.6
2018-Jan-10 10:00N 34°41' E 135°14'612.0
2018-Jan-10 09:30N 34°36' E 135°18'612.4
2018-Jan-10 09:00N 34°32' E 135°24'1 1.3
2018-Jan-10 08:30N 34°32' E 135°24'4 8.7
2018-Jan-10 08:00N 34°33' E 135°19'5 9.3
2018-Jan-10 07:30N 34°34' E 135°14'5 9.8
2018-Jan-10 07:01N 34°34' E 135°08'5 9.3
2018-Jan-10 06:30N 34°36' E 135°03'4 7.4
2018-Jan-10 06:00N 34°37' E 134°58'4 7.9
2018-Jan-10 05:30N 34°38' E 134°53'4 8.3
2018-Jan-10 05:00N 34°41' E 134°50'1 2.8
2018-Jan-10 04:30N 34°42' E 134°50'0 0.1
2018-Jan-10 04:01N 34°42' E 134°50'0 0.1
2018-Jan-10 03:30N 34°42' E 134°50'0 0.0
2018-Jan-10 03:00N 34°42' E 134°50'0 0.0
2018-Jan-10 02:30N 34°42' E 134°50'1 1.4
2018-Jan-10 02:00N 34°41' E 134°50'4 8.0
2018-Jan-10 01:30N 34°38' E 134°53'4 8.3
2018-Jan-10 01:00N 34°37' E 134°58'  

Dump ship's entire track history